createdAt,value
2023-05-23T00:01:17.142Z,98.80
2023-05-23T00:03:45.338Z,98.30
2023-05-23T00:06:14.719Z,98.00
2023-05-23T00:08:42.567Z,98.90
2023-05-23T00:11:13.383Z,98.70
2023-05-23T00:13:41.203Z,99.10
2023-05-23T00:16:10.548Z,98.20
2023-05-23T00:18:38.476Z,97.80
2023-05-23T00:21:06.711Z,98.70
2023-05-23T00:23:34.531Z,99.90
2023-05-23T00:26:02.345Z,99.00
2023-05-23T00:28:31.592Z,98.40
2023-05-23T00:30:59.413Z,98.00
2023-05-23T00:33:27.331Z,97.20
2023-05-23T00:35:55.143Z,99.80
2023-05-23T00:38:22.974Z,99.90
2023-05-23T00:40:50.814Z,99.90
2023-05-23T00:43:19.439Z,99.90
2023-05-23T00:45:49.140Z,99.70
2023-05-23T00:48:17.093Z,99.10
2023-05-23T00:50:45.178Z,99.00
2023-05-23T00:53:14.252Z,98.90
2023-05-23T00:55:42.417Z,98.60
2023-05-23T00:58:11.154Z,98.00
2023-05-23T01:00:39.708Z,97.90
2023-05-23T01:03:09.125Z,97.80
2023-05-23T01:05:37.096Z,98.00
2023-05-23T01:08:04.912Z,98.90
2023-05-23T01:10:33.149Z,99.60
2023-05-23T01:13:11.190Z,99.60
2023-05-23T01:15:43.640Z,98.90
2023-05-23T01:18:18.215Z,98.60
2023-05-23T01:20:52.052Z,97.90
2023-05-23T01:23:55.910Z,98.70
2023-05-23T01:26:35.015Z,98.50
2023-05-23T01:29:12.033Z,97.90
2023-05-23T01:31:44.611Z,98.90
2023-05-23T01:34:14.753Z,98.30
2023-05-23T01:36:44.373Z,97.10
2023-05-23T01:39:12.461Z,97.70
2023-05-23T01:41:41.018Z,97.90
2023-05-23T01:44:10.505Z,97.00
2023-05-23T01:46:40.199Z,96.50
2023-05-23T01:49:10.724Z,96.50
2023-05-23T01:51:39.267Z,96.80
2023-05-23T01:54:07.656Z,96.20
2023-05-23T01:56:35.962Z,96.60
2023-05-23T01:59:04.284Z,96.40
2023-05-23T02:01:35.129Z,96.60
2023-05-23T02:04:03.016Z,97.10
2023-05-23T02:06:31.745Z,97.20
2023-05-23T02:08:59.738Z,97.40
2023-05-23T02:11:27.880Z,98.00
2023-05-23T02:13:55.673Z,98.40
2023-05-23T02:16:26.163Z,97.70
2023-05-23T02:18:56.298Z,96.90
2023-05-23T02:21:24.278Z,97.00
2023-05-23T02:23:52.185Z,96.90
2023-05-23T02:26:20.150Z,96.60
2023-05-23T02:28:47.990Z,95.90
2023-05-23T02:31:17.324Z,96.20
2023-05-23T02:33:45.301Z,95.80
2023-05-23T02:36:14.511Z,95.60
2023-05-23T02:38:42.357Z,95.50
2023-05-23T02:41:10.165Z,96.00
2023-05-23T02:43:39.279Z,96.60
2023-05-23T02:46:07.176Z,95.80
2023-05-23T02:48:35.077Z,96.10
2023-05-23T02:51:03.065Z,96.20
2023-05-23T02:53:32.278Z,96.60
2023-05-23T02:56:00.180Z,95.00
2023-05-23T02:58:28.027Z,94.90
2023-05-23T03:00:55.872Z,94.40
2023-05-23T03:03:23.734Z,95.10
2023-05-23T03:05:51.768Z,95.20
2023-05-23T03:08:19.651Z,95.50
2023-05-23T03:10:48.967Z,95.70
2023-05-23T03:13:17.237Z,96.00
2023-05-23T03:15:46.332Z,95.70
2023-05-23T03:18:14.304Z,94.70
2023-05-23T03:20:42.388Z,94.50
2023-05-23T03:23:10.390Z,94.90
2023-05-23T03:25:38.699Z,94.60
2023-05-23T03:28:08.075Z,94.60
2023-05-23T03:30:36.170Z,94.70
2023-05-23T03:33:04.400Z,94.50
2023-05-23T03:35:32.440Z,94.50
2023-05-23T03:38:00.444Z,94.60
2023-05-23T03:40:28.408Z,95.20
2023-05-23T03:43:07.441Z,96.20
2023-05-23T03:45:36.251Z,96.40
2023-05-23T03:48:04.332Z,95.70
2023-05-23T03:50:32.337Z,95.80
2023-05-23T03:53:00.318Z,96.60
2023-05-23T03:55:28.332Z,96.80
2023-05-23T03:57:56.303Z,96.80
2023-05-23T04:00:26.425Z,97.00
2023-05-23T04:02:54.514Z,96.30
2023-05-23T04:05:22.797Z,95.30
2023-05-23T04:07:51.670Z,94.20
2023-05-23T04:10:19.775Z,94.20
2023-05-23T04:12:48.081Z,94.90
2023-05-23T04:15:18.094Z,94.80
2023-05-23T04:17:47.475Z,95.80
2023-05-23T04:20:15.542Z,96.60
2023-05-23T04:22:43.390Z,97.00
2023-05-23T04:25:11.646Z,96.70
2023-05-23T04:27:40.710Z,96.50
2023-05-23T04:30:10.305Z,96.10
2023-05-23T04:32:38.314Z,95.70
2023-05-23T04:35:08.753Z,94.90
2023-05-23T04:37:37.849Z,93.90
2023-05-23T04:40:07.177Z,93.50
2023-05-23T04:42:36.089Z,93.00
2023-05-23T04:45:04.029Z,93.50
2023-05-23T04:47:37.100Z,93.90
2023-05-23T04:50:07.302Z,93.30
2023-05-23T04:52:35.188Z,92.90
2023-05-23T04:55:03.654Z,92.30
2023-05-23T04:57:31.776Z,92.00
2023-05-23T04:59:59.593Z,91.90
2023-05-23T05:02:28.054Z,91.40
2023-05-23T05:04:55.913Z,91.60
2023-05-23T05:07:25.107Z,90.80
2023-05-23T05:09:52.933Z,90.20
2023-05-23T05:12:20.771Z,89.90
2023-05-23T05:14:48.694Z,89.80
2023-05-23T05:17:16.944Z,89.40
2023-05-23T05:19:44.929Z,89.80
2023-05-23T05:22:13.227Z,89.20
2023-05-23T05:24:42.401Z,89.90
2023-05-23T05:27:11.871Z,90.30
2023-05-23T05:29:39.774Z,90.20
2023-05-23T05:32:09.102Z,90.60
2023-05-23T05:34:37.955Z,90.20
2023-05-23T05:37:06.252Z,90.40
2023-05-23T05:39:34.139Z,90.10
2023-05-23T05:42:04.376Z,91.70
2023-05-23T05:44:32.315Z,92.40
2023-05-23T05:47:00.148Z,91.80
2023-05-23T05:49:28.260Z,91.80
2023-05-23T05:51:56.107Z,93.30
2023-05-23T05:54:23.957Z,94.40
2023-05-23T05:56:51.810Z,94.30
2023-05-23T05:59:20.971Z,93.60
2023-05-23T06:01:51.120Z,93.20
2023-05-23T06:04:19.242Z,93.50
2023-05-23T06:06:47.120Z,93.60
2023-05-23T06:09:14.991Z,92.70
2023-05-23T06:11:42.845Z,92.50
2023-05-23T06:14:10.792Z,93.70
2023-05-23T06:16:40.562Z,93.60
2023-05-23T06:19:09.265Z,93.20
2023-05-23T06:21:37.274Z,93.20
2023-05-23T06:24:05.346Z,93.10
2023-05-23T06:26:33.573Z,92.70
2023-05-23T06:29:01.418Z,92.20
2023-05-23T06:31:29.275Z,93.20
2023-05-23T06:33:58.458Z,93.40
2023-05-23T06:36:26.460Z,93.50
2023-05-23T06:38:54.293Z,93.60
2023-05-23T06:41:22.664Z,94.10
2023-05-23T06:43:50.581Z,95.30
2023-05-23T06:46:18.576Z,96.50
2023-05-23T06:48:46.585Z,97.80
2023-05-23T06:51:15.943Z,97.50
2023-05-23T06:53:43.835Z,98.10
2023-05-23T06:56:11.727Z,98.60
2023-05-23T06:58:39.583Z,99.20
2023-05-23T07:01:07.427Z,99.60
2023-05-23T07:03:35.301Z,99.90
2023-05-23T07:06:03.166Z,99.90
2023-05-23T07:08:32.380Z,99.90
2023-05-23T07:11:00.561Z,99.90
2023-05-23T07:13:28.435Z,99.90
2023-05-23T07:15:56.988Z,98.70
2023-05-23T07:18:24.880Z,97.20
2023-05-23T07:20:52.708Z,97.10
2023-05-23T07:23:20.763Z,95.30
2023-05-23T07:26:01.042Z,95.50
2023-05-23T07:28:30.180Z,94.10
2023-05-23T07:30:58.733Z,92.30
2023-05-23T07:33:26.775Z,90.70
2023-05-23T07:35:54.616Z,88.80
2023-05-23T07:38:22.462Z,89.30
2023-05-23T07:40:59.251Z,88.20
2023-05-23T07:43:35.027Z,89.00
2023-05-23T07:46:02.894Z,89.90
2023-05-23T07:48:32.091Z,89.70
2023-05-23T07:51:00.056Z,91.10
2023-05-23T07:53:27.896Z,90.60
2023-05-23T07:55:57.606Z,91.00
2023-05-23T07:58:25.447Z,91.00
2023-05-23T08:00:53.577Z,90.70
2023-05-23T08:03:21.467Z,90.50
2023-05-23T08:05:49.968Z,90.00
2023-05-23T08:08:18.018Z,90.50
2023-05-23T08:10:47.076Z,91.40
2023-05-23T08:13:16.444Z,90.50
2023-05-23T08:15:44.388Z,90.60
2023-05-23T08:18:12.972Z,91.70
2023-05-23T08:20:41.108Z,91.30
2023-05-23T08:23:09.171Z,91.10
2023-05-23T08:25:37.036Z,91.40
2023-05-23T08:28:04.939Z,90.20
2023-05-23T08:30:34.614Z,88.00
2023-05-23T08:33:04.881Z,86.30
2023-05-23T08:35:35.212Z,84.40
2023-05-23T08:38:03.475Z,82.10
2023-05-23T08:40:32.840Z,82.30
2023-05-23T08:43:00.893Z,81.90
2023-05-23T08:45:30.355Z,82.70
2023-05-23T08:48:02.263Z,83.20
2023-05-23T08:50:31.648Z,82.70
2023-05-23T08:53:00.407Z,81.80
2023-05-23T08:55:29.925Z,82.60
2023-05-23T08:58:00.264Z,80.30
2023-05-23T09:00:29.243Z,80.40
2023-05-23T09:02:58.772Z,81.10
2023-05-23T09:05:27.862Z,80.40
2023-05-23T09:07:56.782Z,81.30
2023-05-23T09:10:24.887Z,81.80
2023-05-23T09:12:52.791Z,81.50
2023-05-23T09:15:22.353Z,82.50
2023-05-23T09:17:50.486Z,84.30
2023-05-23T09:20:19.847Z,84.20
2023-05-23T09:22:48.913Z,84.70
2023-05-23T09:25:17.393Z,83.60
2023-05-23T09:27:48.182Z,82.30
2023-05-23T09:30:16.763Z,82.70
2023-05-23T09:32:57.806Z,80.70
2023-05-23T09:35:30.140Z,81.00
2023-05-23T09:37:59.262Z,82.00
2023-05-23T09:40:31.956Z,81.50
2023-05-23T09:43:04.080Z,82.30
2023-05-23T09:45:33.286Z,82.70
2023-05-23T09:48:01.688Z,82.00
2023-05-23T09:50:34.644Z,82.00
2023-05-23T09:53:02.554Z,82.00
2023-05-23T09:55:30.461Z,82.70
2023-05-23T09:58:00.794Z,81.80
2023-05-23T10:00:29.581Z,80.60
2023-05-23T10:03:11.489Z,80.90
2023-05-23T10:05:45.203Z,79.30
2023-05-23T10:08:17.145Z,76.50
2023-05-23T10:11:34.319Z,75.80
2023-05-23T10:14:04.478Z,73.30
2023-05-23T10:16:40.990Z,74.30
2023-05-23T10:19:21.732Z,73.50
2023-05-23T10:21:55.427Z,73.60
2023-05-23T10:24:25.515Z,73.70
2023-05-23T10:26:54.174Z,74.00
2023-05-23T10:29:22.821Z,73.30
2023-05-23T10:31:52.000Z,72.30
2023-05-23T10:34:28.905Z,74.20
2023-05-23T10:37:02.546Z,73.20
2023-05-23T10:39:47.822Z,72.80
2023-05-23T10:42:21.776Z,72.70
2023-05-23T10:44:49.738Z,72.60
2023-05-23T10:47:28.244Z,71.60
2023-05-23T10:49:56.946Z,69.70
2023-05-23T10:52:27.639Z,68.20
2023-05-23T10:54:56.891Z,68.00
2023-05-23T10:57:27.947Z,66.80
2023-05-23T10:59:56.165Z,65.50
2023-05-23T11:02:27.799Z,66.50
2023-05-23T11:05:20.087Z,65.80
2023-05-23T11:08:08.826Z,66.60
2023-05-23T11:10:59.731Z,67.40
2023-05-23T11:13:47.735Z,68.10
2023-05-23T11:16:29.081Z,66.40
2023-05-23T11:19:26.152Z,66.30
2023-05-23T11:21:56.128Z,67.00
2023-05-23T11:24:45.803Z,67.30
2023-05-23T11:27:13.964Z,67.70
2023-05-23T11:29:41.848Z,67.00
2023-05-23T11:32:17.267Z,66.90
2023-05-23T11:34:45.371Z,65.40
2023-05-23T11:37:13.775Z,66.10
2023-05-23T11:39:42.946Z,65.50
2023-05-23T11:42:10.836Z,64.80
2023-05-23T11:44:38.687Z,64.80
2023-05-23T11:47:08.411Z,63.80
2023-05-23T11:49:38.760Z,64.90
2023-05-23T11:52:07.569Z,65.30
2023-05-23T11:54:35.724Z,64.10
2023-05-23T11:57:05.749Z,64.50
2023-05-23T11:59:34.919Z,64.60
2023-05-23T12:02:03.601Z,63.10
2023-05-23T12:04:31.599Z,63.90
2023-05-23T12:06:59.526Z,63.10
2023-05-23T12:09:27.410Z,63.40
2023-05-23T12:11:55.317Z,63.10
2023-05-23T12:14:24.567Z,62.90
2023-05-23T12:16:54.893Z,63.60
2023-05-23T12:19:22.945Z,63.50
2023-05-23T12:21:51.236Z,63.80
2023-05-23T12:24:20.215Z,64.30
2023-05-23T12:26:52.510Z,65.10
2023-05-23T12:29:22.232Z,64.30
2023-05-23T12:31:52.550Z,64.10
2023-05-23T12:34:23.296Z,63.50
2023-05-23T12:36:57.242Z,63.00
2023-05-23T12:39:33.713Z,64.40
2023-05-23T12:42:09.434Z,64.20
2023-05-23T12:44:37.380Z,62.70
2023-05-23T12:47:07.055Z,63.20
2023-05-23T12:49:34.958Z,64.40
2023-05-23T12:52:02.823Z,64.80
2023-05-23T12:54:30.860Z,63.30
2023-05-23T12:56:58.917Z,62.60
2023-05-23T12:59:26.739Z,62.10
2023-05-23T13:01:55.030Z,62.10
2023-05-23T13:04:24.186Z,61.30
2023-05-23T13:06:52.850Z,60.10
2023-05-23T13:09:20.753Z,59.70
2023-05-23T13:11:48.597Z,60.10
2023-05-23T13:14:16.440Z,59.40
2023-05-23T13:16:45.611Z,59.60
2023-05-23T13:19:13.507Z,61.10
2023-05-23T13:21:42.830Z,62.40
2023-05-23T13:24:10.684Z,62.10
2023-05-23T13:26:38.599Z,61.30
2023-05-23T13:29:07.181Z,60.70
2023-05-23T13:31:35.145Z,60.80
2023-05-23T13:34:02.980Z,62.00
2023-05-23T13:36:31.689Z,62.00
2023-05-23T13:39:01.235Z,61.70
2023-05-23T13:41:29.179Z,60.90
2023-05-23T13:43:57.493Z,59.20
2023-05-23T13:46:25.397Z,59.70
2023-05-23T13:48:53.242Z,60.10
2023-05-23T13:51:21.084Z,60.50
2023-05-23T13:53:48.950Z,60.70
2023-05-23T13:56:18.123Z,60.40
2023-05-23T13:58:49.373Z,61.00
2023-05-23T14:01:18.027Z,60.90
2023-05-23T14:03:46.116Z,60.20
2023-05-23T14:06:13.955Z,59.50
2023-05-23T14:08:41.843Z,58.50
2023-05-23T14:11:09.679Z,58.70
2023-05-23T14:13:38.852Z,58.70
2023-05-23T14:16:07.057Z,58.80
2023-05-23T14:18:35.061Z,59.70
2023-05-23T14:21:02.970Z,59.50
2023-05-23T14:23:30.947Z,59.80
2023-05-23T14:25:58.755Z,59.50
2023-05-23T14:28:26.561Z,59.60
2023-05-23T14:30:56.512Z,58.50
2023-05-23T14:33:24.458Z,57.90
2023-05-23T14:35:52.744Z,57.60
2023-05-23T14:38:20.796Z,57.60
2023-05-23T14:40:48.880Z,57.20
2023-05-23T14:43:16.848Z,57.20
2023-05-23T14:45:44.927Z,58.40
2023-05-23T14:48:14.538Z,58.50
2023-05-23T14:50:42.537Z,59.00
2023-05-23T14:53:10.766Z,56.80
2023-05-23T14:55:38.779Z,56.90
2023-05-23T14:58:07.122Z,56.40
2023-05-23T15:00:34.937Z,55.70
2023-05-23T15:03:03.370Z,56.20
2023-05-23T15:05:32.685Z,56.70
2023-05-23T15:08:00.550Z,56.90
2023-05-23T15:10:28.400Z,56.90
2023-05-23T15:12:56.566Z,57.70
2023-05-23T15:15:24.441Z,56.90
2023-05-23T15:17:52.707Z,57.00
2023-05-23T15:20:20.540Z,57.00
2023-05-23T15:22:49.697Z,57.90
2023-05-23T15:25:20.379Z,59.40
2023-05-23T15:27:52.183Z,60.60
2023-05-23T15:30:20.091Z,62.10
2023-05-23T15:32:48.570Z,60.90
2023-05-23T15:35:18.279Z,60.70
2023-05-23T15:37:48.741Z,61.30
2023-05-23T15:40:16.629Z,61.80
2023-05-23T15:42:46.308Z,61.70
2023-05-23T15:45:14.500Z,61.40
2023-05-23T15:47:42.440Z,58.70
2023-05-23T15:50:12.920Z,59.80
2023-05-23T15:52:42.117Z,60.00
2023-05-23T15:55:11.567Z,59.90
2023-05-23T15:57:39.460Z,60.70
2023-05-23T16:00:08.778Z,60.90
2023-05-23T16:02:36.686Z,60.60
2023-05-23T16:05:04.679Z,59.20
2023-05-23T16:07:32.512Z,59.20
2023-05-23T16:10:00.496Z,59.10
2023-05-23T16:12:31.033Z,58.20
2023-05-23T16:14:59.026Z,58.50
2023-05-23T16:17:26.838Z,58.80
2023-05-23T16:19:54.631Z,58.50
2023-05-23T16:22:22.460Z,58.20
2023-05-23T16:24:50.344Z,58.30
2023-05-23T16:27:18.258Z,58.70
2023-05-23T16:29:47.433Z,58.80
2023-05-23T16:32:16.984Z,59.90
2023-05-23T16:34:48.741Z,60.70
2023-05-23T16:37:20.580Z,61.10
2023-05-23T16:39:48.521Z,61.30
2023-05-23T16:42:16.348Z,61.40
2023-05-23T16:44:44.220Z,60.70
2023-05-23T16:47:13.492Z,60.50
2023-05-23T16:49:41.305Z,60.80
2023-05-23T16:52:09.159Z,60.40
2023-05-23T16:54:37.041Z,60.50
2023-05-23T16:57:05.672Z,61.00
2023-05-23T16:59:33.834Z,60.70
2023-05-23T17:02:01.747Z,60.90
2023-05-23T17:04:30.896Z,61.40
2023-05-23T17:06:58.824Z,61.80
2023-05-23T17:09:26.667Z,61.90
2023-05-23T17:11:54.569Z,62.90
2023-05-23T17:14:22.468Z,63.70
2023-05-23T17:16:50.268Z,63.40
2023-05-23T17:19:18.150Z,63.50
2023-05-23T17:21:47.402Z,63.40
2023-05-23T17:24:15.202Z,63.60
2023-05-23T17:26:43.030Z,63.30
2023-05-23T17:29:11.019Z,62.70
2023-05-23T17:31:38.942Z,62.60
2023-05-23T17:34:06.849Z,63.20
2023-05-23T17:36:35.123Z,63.00
2023-05-23T17:39:04.416Z,62.50
2023-05-23T17:41:32.285Z,61.90
2023-05-23T17:44:00.111Z,62.50
2023-05-23T17:46:27.998Z,61.90
2023-05-23T17:48:55.847Z,62.10
2023-05-23T17:51:23.645Z,63.10
2023-05-23T17:53:53.638Z,63.70
2023-05-23T17:56:24.749Z,63.70
2023-05-23T17:58:52.932Z,64.70
2023-05-23T18:01:20.871Z,65.10
2023-05-23T18:03:49.166Z,65.40
2023-05-23T18:06:17.060Z,65.50
2023-05-23T18:08:44.870Z,65.60
2023-05-23T18:11:13.243Z,65.70
2023-05-23T18:13:42.480Z,65.40
2023-05-23T18:16:10.328Z,65.70
2023-05-23T18:18:38.180Z,66.10
2023-05-23T18:21:07.096Z,66.90
2023-05-23T18:23:34.956Z,67.20
2023-05-23T18:26:02.843Z,68.40
2023-05-23T18:28:30.707Z,69.00
2023-05-23T18:30:59.904Z,69.80
2023-05-23T18:33:28.438Z,70.60
2023-05-23T18:35:56.382Z,71.10
2023-05-23T18:38:24.293Z,71.50
2023-05-23T18:40:52.134Z,72.50
2023-05-23T18:43:20.128Z,73.20
2023-05-23T18:45:47.944Z,73.70
2023-05-23T18:48:17.139Z,74.30
2023-05-23T18:50:45.107Z,74.80
2023-05-23T18:53:13.035Z,75.10
2023-05-23T18:55:40.847Z,75.70
2023-05-23T18:58:08.653Z,76.10
2023-05-23T19:00:36.453Z,76.40
2023-05-23T19:03:04.732Z,76.50
2023-05-23T19:05:34.040Z,76.30
2023-05-23T19:08:03.265Z,76.20
2023-05-23T19:10:31.069Z,76.00
2023-05-23T19:12:58.892Z,76.00
2023-05-23T19:15:26.720Z,76.20
2023-05-23T19:17:54.593Z,76.40
2023-05-23T19:20:22.448Z,76.30
2023-05-23T19:22:52.756Z,76.60
2023-05-23T19:25:21.542Z,76.70
2023-05-23T19:27:49.385Z,76.90
2023-05-23T19:30:17.359Z,77.10
2023-05-23T19:32:45.230Z,77.60
2023-05-23T19:35:16.336Z,77.70
2023-05-23T19:37:44.773Z,77.50
2023-05-23T19:40:14.475Z,77.90
2023-05-23T19:42:42.496Z,78.20
2023-05-23T19:45:11.767Z,78.60
2023-05-23T19:47:39.731Z,79.10
2023-05-23T19:50:09.534Z,79.20
2023-05-23T19:52:37.498Z,79.60
2023-05-23T19:55:06.622Z,79.50
2023-05-23T19:57:36.291Z,79.50
2023-05-23T20:00:05.696Z,79.20
2023-05-23T20:02:33.918Z,79.40
2023-05-23T20:05:01.794Z,79.20
2023-05-23T20:07:29.958Z,79.20
2023-05-23T20:09:58.103Z,79.00
2023-05-23T20:12:26.679Z,78.70
2023-05-23T20:14:55.881Z,78.60
2023-05-23T20:17:23.772Z,79.00
2023-05-23T20:19:51.598Z,79.50
2023-05-23T20:22:19.423Z,79.60
2023-05-23T20:24:47.669Z,79.80
2023-05-23T20:27:15.800Z,79.80
2023-05-23T20:29:46.906Z,79.80
2023-05-23T20:32:16.525Z,80.40
2023-05-23T20:34:44.340Z,80.10
2023-05-23T20:37:13.926Z,80.40
2023-05-23T20:39:42.307Z,80.20
2023-05-23T20:42:11.343Z,80.30
2023-05-23T20:44:39.313Z,80.60
2023-05-23T20:47:07.477Z,80.70
2023-05-23T20:49:37.426Z,80.80
2023-05-23T20:52:06.445Z,80.70
2023-05-23T20:54:35.266Z,80.90
2023-05-23T20:57:03.808Z,81.20
2023-05-23T20:59:31.629Z,81.10
2023-05-23T21:01:59.501Z,80.90
2023-05-23T21:04:27.322Z,80.80
2023-05-23T21:06:56.434Z,81.00
2023-05-23T21:09:24.254Z,81.50
2023-05-23T21:11:52.068Z,81.60
2023-05-23T21:14:19.877Z,81.60
2023-05-23T21:16:47.751Z,81.90
2023-05-23T21:19:15.921Z,82.00
2023-05-23T21:21:43.784Z,82.40
2023-05-23T21:24:14.204Z,82.50
2023-05-23T21:26:42.050Z,82.40
2023-05-23T21:29:09.924Z,82.80
2023-05-23T21:31:41.845Z,82.70
2023-05-23T21:34:22.431Z,83.00
2023-05-23T21:36:52.239Z,82.70
2023-05-23T21:39:21.485Z,83.00
2023-05-23T21:41:49.333Z,83.30
2023-05-23T21:44:18.782Z,83.10
2023-05-23T21:46:47.214Z,83.30
2023-05-23T21:49:15.500Z,83.40
2023-05-23T21:51:44.075Z,83.50
2023-05-23T21:54:11.931Z,83.60
2023-05-23T21:56:41.777Z,83.50
2023-05-23T21:59:09.693Z,83.60
2023-05-23T22:01:37.575Z,83.70
2023-05-23T22:04:05.844Z,83.80
2023-05-23T22:06:34.224Z,84.20
2023-05-23T22:09:02.028Z,84.20
2023-05-23T22:11:33.827Z,84.10
2023-05-23T22:14:03.364Z,83.90
2023-05-23T22:16:32.988Z,84.00
2023-05-23T22:19:02.143Z,83.60
2023-05-23T22:21:30.162Z,83.60
2023-05-23T22:23:58.618Z,84.00
2023-05-23T22:26:26.976Z,83.90
2023-05-23T22:28:54.932Z,84.00
2023-05-23T22:31:24.448Z,84.10
2023-05-23T22:33:52.521Z,84.00
2023-05-23T22:36:20.431Z,83.90
2023-05-23T22:38:48.329Z,83.90
2023-05-23T22:41:16.529Z,84.00
2023-05-23T22:43:44.407Z,83.80
2023-05-23T22:46:12.279Z,84.00
2023-05-23T22:48:41.679Z,83.70
2023-05-23T22:51:12.450Z,84.00
2023-05-23T22:53:41.175Z,83.90
2023-05-23T22:56:09.148Z,83.50
2023-05-23T22:58:36.960Z,83.50
2023-05-23T23:01:04.984Z,83.60
2023-05-23T23:03:33.001Z,83.40
2023-05-23T23:06:06.235Z,83.40
2023-05-23T23:08:34.321Z,83.20
2023-05-23T23:11:02.299Z,83.20
2023-05-23T23:13:30.219Z,83.40
2023-05-23T23:15:59.071Z,83.40
2023-05-23T23:18:27.277Z,83.10
2023-05-23T23:20:55.218Z,83.20
2023-05-23T23:23:24.427Z,83.60
2023-05-23T23:25:52.431Z,83.90
2023-05-23T23:28:20.801Z,84.50
2023-05-23T23:30:48.946Z,84.70
2023-05-23T23:33:16.848Z,84.90
2023-05-23T23:35:46.328Z,84.70
2023-05-23T23:38:14.261Z,84.90
2023-05-23T23:40:45.221Z,84.90
2023-05-23T23:43:13.096Z,84.40
2023-05-23T23:45:41.217Z,84.60
2023-05-23T23:48:09.142Z,84.40
2023-05-23T23:50:37.072Z,84.00
2023-05-23T23:53:04.911Z,84.10
2023-05-23T23:55:32.767Z,84.20
2023-05-23T23:58:02.011Z,83.50
